Niles, Indiana
Current Conditions -  °F | °C
As of 12:53 AM on Thursday 27 Nov 2014 (Local Time) from KMIE Reporting Station
Overcast Overcast  
Wind Chill: -2°   Ceiling: 2500
Heat Index: -2°   Visibility: 9mi
Dew Point: -6°   Wind: 0mph
Humidity: 78%   Direction: NA
Pressure: 30.09"   Gusts: NA
Location:  40.3453°N, 85.3353°W
Report Text: KMIE 270553Z AUTO 00000KT 9SM OVC025 M02/M06 A3009 RMK AO2 SLP198 T10221056 11022 21022 51004
Loading
Personal Weather Stations






























Interactive Weather Map New forecast layout! Learn more

10-Day Weather Forecast

Advertisements
Track Severe Weather on mobile